Time;durP1;ratioP1;P1;durP2;ratioP2;P2;SDS_P1;SDS_P2;PMS_P1;PMS_P2;Temp;Humidity;BMP_temperature;BMP_pressure;BME280_temperature;BME280_humidity;BME280_pressure;Samples;Min_cycle;Max_cycle;Signal;HPM_P1;HPM_P2
2022/05/11 00:01:19;;;;;;;7.07;4.47;;;14.20;96.20;;;14.41;65.86;95292.44;5055267;28;20963;-55
2022/05/11 00:03:47;;;;;;;13.83;5.10;;;14.20;96.50;;;14.38;66.09;95292.72;5055175;28;20770;-56
2022/05/11 00:06:15;;;;;;;6.30;4.40;;;14.10;96.50;;;14.35;65.45;95295.69;5049303;28;20479;-55
2022/05/11 00:08:43;;;;;;;7.93;4.93;;;14.10;96.30;;;14.32;65.42;95283.56;5050592;28;20494;-56
2022/05/11 00:11:10;;;;;;;7.40;5.10;;;14.10;96.00;;;14.28;65.50;95286.69;5048560;28;20565;-55
2022/05/11 00:13:38;;;;;;;6.60;5.43;;;14.00;96.20;;;14.22;65.77;95280.19;5057697;28;20443;-56
2022/05/11 00:16:05;;;;;;;5.73;4.80;;;14.00;96.20;;;14.19;65.67;95274.38;5055648;28;20614;-56
2022/05/11 00:18:33;;;;;;;11.17;5.20;;;14.00;96.40;;;14.18;66.31;95270.06;5045811;28;21002;-53
2022/05/11 00:21:02;;;;;;;7.37;4.57;;;13.90;96.70;;;14.18;66.17;95272.72;5054743;28;20556;-56
2022/05/11 00:23:29;;;;;;;4.40;3.87;;;13.90;96.60;;;14.16;66.08;95275.50;5052200;28;20455;-55
2022/05/11 00:25:56;;;;;;;4.80;4.20;;;13.90;96.70;;;14.13;66.30;95267.88;5047439;28;21101;-56
2022/05/11 00:28:24;;;;;;;5.40;4.70;;;13.90;96.70;;;14.13;66.27;95273.19;5053889;28;20585;-56
2022/05/11 00:30:51;;;;;;;4.20;3.90;;;13.90;96.70;;;14.12;66.13;95266.22;5051092;28;20528;-54
2022/05/11 00:33:18;;;;;;;4.70;4.30;;;13.90;96.70;;;14.12;66.25;95255.63;5058515;28;20459;-55
2022/05/11 00:35:47;;;;;;;5.73;4.67;;;13.90;96.70;;;14.10;66.00;95257.59;5047719;28;21084;-55
2022/05/11 00:38:16;;;;;;;4.73;4.27;;;13.80;96.30;;;14.07;66.16;95264.03;5057304;28;20462;-54
2022/05/11 00:40:46;;;;;;;5.13;4.20;;;13.80;96.30;;;14.03;65.63;95257.34;5054250;28;20501;-53
2022/05/11 00:43:13;;;;;;;3.83;3.53;;;13.80;96.30;;;13.99;65.80;95256.84;5057366;28;20508;-57
2022/05/11 00:45:46;;;;;;;14.50;4.67;;;13.80;96.30;;;13.98;66.13;95247.25;5057629;28;20487;-55
2022/05/11 00:51:00;;;;;;;5.23;4.73;;;13.70;96.60;;;13.96;66.46;95261.63;5048578;28;20490;-56
2022/05/11 00:53:29;;;;;;;4.20;3.90;;;13.70;96.90;;;13.95;66.40;95268.69;5054658;28;20458;-55
2022/05/11 00:56:00;;;;;;;5.53;4.43;;;13.70;96.90;;;13.95;66.59;95260.75;5053028;28;20479;-57
2022/05/11 00:58:31;;;;;;;5.10;4.47;;;13.70;96.90;;;13.94;66.74;95259.13;5042602;28;20534;-54
2022/05/11 01:00:59;;;;;;;7.13;5.23;;;13.70;97.00;;;13.95;66.03;95265.22;5054564;28;20838;-56
2022/05/11 01:03:30;;;;;;;6.70;4.30;;;13.70;96.70;;;13.93;66.52;95273.31;5051616;28;21600;-56
2022/05/11 01:05:58;;;;;;;7.20;4.80;;;13.70;96.90;;;13.91;66.66;95275.28;5056366;28;20479;-56
2022/05/11 01:08:25;;;;;;;8.47;4.70;;;13.70;97.40;;;13.91;66.89;95279.72;5058069;28;20491;-54
2022/05/11 01:10:54;;;;;;;8.30;4.97;;;13.70;97.10;;;13.87;66.49;95284.50;5051733;28;21253;-55
2022/05/11 01:13:21;;;;;;;7.90;4.23;;;13.60;96.90;;;13.86;66.72;95279.34;5055351;28;20467;-55
2022/05/11 01:15:50;;;;;;;4.60;3.77;;;13.60;97.00;;;13.84;66.60;95274.22;5063413;28;20544;-60
2022/05/11 01:18:17;;;;;;;4.10;3.80;;;13.60;96.90;;;13.82;66.41;95278.81;5057888;28;20454;-56
2022/05/11 01:20:45;;;;;;;5.47;4.40;;;13.60;96.90;;;13.81;66.43;95277.16;5063906;28;20517;-55
2022/05/11 01:23:18;;;;;;;4.07;3.60;;;13.60;96.80;;;13.80;66.05;95275.47;5049458;28;20464;-55
2022/05/11 01:25:47;;;;;;;4.60;4.30;;;13.60;96.70;;;13.74;66.39;95262.84;5039942;28;20479;-56
2022/05/11 01:28:16;;;;;;;3.83;3.40;;;13.50;96.60;;;13.75;66.25;95269.81;5047687;28;20503;-56
2022/05/11 01:30:48;;;;;;;4.53;3.60;;;13.50;96.60;;;13.73;65.85;95271.78;5054614;28;20485;-56
2022/05/11 01:33:19;;;;;;;5.57;4.50;;;13.50;96.40;;;13.69;66.03;95268.59;5057275;28;20450;-54
2022/05/11 01:35:54;;;;;;;3.30;3.00;;;13.50;96.40;;;13.66;65.95;95268.06;5054127;28;20532;-55
2022/05/11 01:38:32;;;;;;;5.00;4.13;;;13.40;96.20;;;13.62;65.92;95268.38;5055237;28;20566;-55
2022/05/11 01:41:01;;;;;;;3.33;3.13;;;13.40;96.40;;;13.60;65.38;95270.34;5051420;28;20482;-54
2022/05/11 01:43:30;;;;;;;6.73;3.83;;;13.40;95.90;;;13.57;66.05;95278.56;5051035;28;20805;-56
2022/05/11 01:45:57;;;;;;;5.90;3.47;;;13.30;96.10;;;13.54;65.13;95276.22;5051966;28;20480;-56
2022/05/11 01:48:25;;;;;;;8.33;3.40;;;13.30;95.80;;;13.51;65.05;95273.03;5059570;28;20499;-55
2022/05/11 01:50:52;;;;;;;2.70;2.50;;;13.30;95.90;;;13.50;65.86;95271.38;5046513;28;20476;-56
2022/05/11 01:53:19;;;;;;;3.37;3.07;;;13.30;96.10;;;13.48;65.69;95266.25;5058334;28;20862;-55
2022/05/11 01:55:47;;;;;;;3.43;3.13;;;13.20;96.00;;;13.48;65.71;95268.88;5053805;28;20480;-56
2022/05/11 01:58:17;;;;;;;4.57;3.00;;;13.30;96.10;;;13.47;65.42;95264.56;5049775;28;21049;-57
2022/05/11 02:00:46;;;;;;;3.13;2.83;;;13.20;96.00;;;13.46;65.37;95262.88;5050405;28;21153;-55
2022/05/11 02:03:13;;;;;;;4.40;3.10;;;13.20;96.00;;;13.45;65.82;95263.88;5048347;28;20456;-56
2022/05/11 02:08:27;;;;;;;7.63;2.90;;;13.20;96.00;;;13.45;65.41;95264.72;5058531;28;20510;-57
2022/05/11 02:10:54;;;;;;;3.37;3.20;;;13.20;96.00;;;13.44;65.60;95268.31;5054095;28;20479;-55
2022/05/11 02:13:23;;;;;;;5.50;3.13;;;13.20;96.00;;;13.42;66.07;95265.00;5053523;28;20476;-55
2022/05/11 02:15:50;;;;;;;4.50;4.07;;;13.20;96.10;;;13.41;65.72;95268.63;5051713;28;20474;-57
2022/05/11 02:18:18;;;;;;;4.57;3.43;;;13.20;96.20;;;13.40;65.47;95261.69;5046980;28;20543;-54
2022/05/11 02:20:45;;;;;;;3.33;3.13;;;13.20;96.00;;;13.39;65.72;95259.19;5049778;28;20574;-56
2022/05/11 02:23:15;;;;;;;6.53;3.60;;;13.20;96.00;;;13.37;65.26;95261.13;5055881;28;20455;-54
2022/05/11 02:25:45;;;;;;;4.80;3.23;;;13.20;95.80;;;13.34;64.92;95261.44;5049031;28;20471;-56
2022/05/11 02:28:12;;;;;;;5.10;3.43;;;13.10;95.70;;;13.34;65.06;95261.44;5050877;28;20523;-54
2022/05/11 02:30:41;;;;;;;4.87;3.70;;;13.10;95.60;;;13.32;64.49;95258.91;5044331;28;21000;-56
2022/05/11 02:33:09;;;;;;;6.60;4.00;;;13.10;95.30;;;13.27;65.13;95267.25;5051722;28;20488;-56
2022/05/11 02:35:36;;;;;;;4.53;3.63;;;13.10;95.50;;;13.25;64.94;95271.06;5049020;28;20492;-55
2022/05/11 02:38:05;;;;;;;5.73;4.23;;;13.10;95.60;;;13.23;64.73;95265.06;5047503;28;20463;-55
2022/05/11 02:40:35;;;;;;;4.50;3.83;;;13.00;95.50;;;13.21;64.49;95262.56;5051777;28;20479;-56
2022/05/11 02:43:02;;;;;;;6.63;3.77;;;13.00;95.40;;;13.20;64.64;95262.72;5053088;28;20548;-56
2022/05/11 02:45:30;;;;;;;11.27;3.73;;;13.00;95.50;;;13.18;65.07;95265.50;5046757;28;20476;-55
2022/05/11 02:47:58;;;;;;;12.17;3.93;;;13.00;95.70;;;13.20;64.91;95270.63;5051899;28;20471;-55
2022/05/11 02:50:28;;;;;;;4.80;3.30;;;13.00;95.80;;;13.19;65.35;95267.19;5049636;28;20476;-55
2022/05/11 02:52:55;;;;;;;7.40;4.37;;;13.00;95.90;;;13.20;65.79;95265.34;5050731;28;20464;-56
2022/05/11 02:55:23;;;;;;;8.73;3.90;;;13.00;96.20;;;13.20;65.81;95266.22;5050468;28;20485;-55
2022/05/11 02:57:50;;;;;;;3.90;3.60;;;13.00;96.20;;;13.22;66.19;95272.16;5050477;28;20456;-56
2022/05/11 03:00:19;;;;;;;7.33;4.17;;;13.00;96.30;;;13.23;65.90;95279.13;5044652;28;20537;-56
2022/05/11 03:02:46;;;;;;;4.20;3.80;;;13.00;96.20;;;13.24;66.24;95280.75;5041524;28;20456;-56
2022/05/11 03:05:15;;;;;;;4.77;4.07;;;13.00;96.60;;;13.26;65.97;95284.13;5055027;28;20487;-56
2022/05/11 03:07:43;;;;;;;5.83;4.00;;;13.10;96.50;;;13.26;65.91;95280.63;5053747;28;20513;-56
2022/05/11 03:10:11;;;;;;;5.13;4.63;;;13.10;96.50;;;13.26;66.39;95281.47;5051340;28;20495;-58
2022/05/11 03:12:38;;;;;;;13.47;3.80;;;13.00;96.50;;;13.24;66.09;95288.69;5053304;28;20947;-55
2022/05/11 03:15:07;;;;;;;5.57;3.97;;;13.10;96.50;;;13.23;65.71;95292.34;5051138;28;20630;-56
2022/05/11 03:17:35;;;;;;;5.97;3.80;;;13.00;96.10;;;13.22;65.53;95297.75;5046384;28;20458;-54
2022/05/11 03:20:02;;;;;;;4.43;3.50;;;13.00;95.90;;;13.21;65.21;95304.00;5054706;28;20471;-56
2022/05/11 03:22:31;;;;;;;6.47;3.87;;;13.00;95.80;;;13.19;64.93;95301.50;5050942;28;20487;-54
2022/05/11 03:24:58;;;;;;;8.03;4.30;;;13.00;95.80;;;13.17;64.94;95303.47;5043878;28;20544;-57
2022/05/11 03:27:25;;;;;;;3.83;3.53;;;13.00;95.70;;;13.16;65.10;95301.81;5049438;28;20466;-56
2022/05/11 03:29:53;;;;;;;5.63;3.93;;;12.90;95.60;;;13.16;65.01;95304.44;5058976;28;20483;-54
2022/05/11 03:35:08;;;;;;;12.03;3.57;;;13.00;95.70;;;13.19;65.47;95295.41;5049068;28;20483;-55
2022/05/11 03:37:38;;;;;;;5.53;3.80;;;13.00;95.90;;;13.17;64.91;95298.19;5043044;28;20451;-54
2022/05/11 03:40:08;;;;;;;4.30;3.47;;;13.00;95.40;;;13.16;64.29;95295.69;5053743;28;20992;-56
2022/05/11 03:42:36;;;;;;;5.97;3.60;;;13.00;95.30;;;13.16;64.98;95298.34;5043095;28;20540;-56
2022/05/11 03:45:09;;;;;;;7.33;4.77;;;12.90;95.50;;;13.16;65.02;95298.34;5055154;28;20502;-56
2022/05/11 03:47:36;;;;;;;4.30;3.90;;;12.90;95.70;;;13.16;65.18;95296.53;5043544;28;20459;-56
2022/05/11 03:50:04;;;;;;;6.03;4.10;;;12.90;95.80;;;13.17;64.91;95300.84;5044605;28;20498;-56
2022/05/11 03:52:31;;;;;;;4.90;3.80;;;13.00;95.70;;;13.18;65.04;95302.47;5039685;28;20445;-54
2022/05/11 03:55:00;;;;;;;4.60;4.20;;;13.00;95.80;;;13.19;65.22;95305.97;5056281;28;20450;-55
2022/05/11 03:57:27;;;;;;;10.77;4.47;;;13.00;95.90;;;13.19;65.26;95306.78;5046711;28;20842;-55
2022/05/11 03:59:54;;;;;;;5.50;4.10;;;13.00;95.90;;;13.19;65.46;95306.78;5047778;28;20451;-56
2022/05/11 04:02:22;;;;;;;4.20;3.83;;;13.00;95.90;;;13.21;65.26;95302.19;5055391;28;20482;-59
2022/05/11 04:04:49;;;;;;;9.47;5.13;;;13.00;95.90;;;13.22;65.06;95297.75;5056747;28;20446;-56
2022/05/11 04:07:17;;;;;;;5.00;4.00;;;13.00;96.10;;;13.24;65.25;95304.53;5056513;28;20901;-59
2022/05/11 04:09:44;;;;;;;9.40;6.00;;;13.00;95.90;;;13.27;65.07;95309.53;5052313;28;20506;-57
2022/05/11 04:12:13;;;;;;;17.93;6.17;;;13.10;95.90;;;13.31;65.40;95314.53;5049255;28;20455;-55
2022/05/11 04:14:41;;;;;;;6.20;4.97;;;13.10;96.00;;;13.36;65.43;95328.19;5060913;28;20477;-56
2022/05/11 04:17:08;;;;;;;8.20;4.60;;;13.10;96.00;;;13.41;65.49;95329.38;5056908;28;20471;-58
2022/05/11 04:19:36;;;;;;;17.67;5.43;;;13.20;96.00;;;13.50;65.39;95330.34;5054293;28;20463;-55
2022/05/11 04:22:04;;;;;;;8.13;5.40;;;13.20;96.00;;;13.56;65.50;95334.22;5060043;28;20482;-55
2022/05/11 04:24:31;;;;;;;12.30;4.77;;;13.30;96.10;;;13.61;65.35;95335.41;5051063;28;20468;-56
2022/05/11 04:27:00;;;;;;;9.10;4.00;;;13.40;96.10;;;13.68;65.14;95333.03;5044820;28;20476;-56
2022/05/11 04:29:28;;;;;;;8.40;4.73;;;13.40;96.10;;;13.73;65.71;95329.94;5045160;28;20908;-54
2022/05/11 04:31:56;;;;;;;6.20;5.60;;;13.50;96.20;;;13.80;65.64;95341.56;5044805;28;20478;-55
2022/05/11 04:34:23;;;;;;;5.93;4.57;;;13.50;96.20;;;13.85;65.14;95343.78;5045638;28;20451;-54
2022/05/11 04:36:50;;;;;;;9.87;4.40;;;13.60;96.00;;;13.89;65.06;95332.75;5051916;28;20471;-55
2022/05/11 04:39:18;;;;;;;9.97;4.30;;;13.70;96.10;;;13.95;65.31;95342.75;5043899;28;20452;-54
2022/05/11 04:41:45;;;;;;;8.63;4.23;;;13.70;96.10;;;13.99;64.87;95344.13;5047514;28;20514;-56
2022/05/11 04:44:13;;;;;;;8.30;3.93;;;13.80;96.00;;;14.05;64.86;95345.34;5050057;28;20451;-57
2022/05/11 04:46:41;;;;;;;11.27;4.33;;;13.80;95.90;;;14.09;65.13;95345.88;5059920;28;20474;-55
2022/05/11 04:49:19;;;;;;;6.70;4.57;;;13.80;95.90;;;14.15;64.44;95347.91;5056566;28;20514;-56
2022/05/11 04:51:47;;;;;;;10.83;5.63;;;13.90;95.60;;;14.20;64.67;95353.56;5058632;28;20592;-55
2022/05/11 04:54:14;;;;;;;5.93;5.23;;;13.90;95.70;;;14.24;64.98;95352.31;5051876;28;20542;-54
2022/05/11 04:56:42;;;;;;;7.00;4.37;;;14.00;95.80;;;14.29;64.02;95350.03;5052355;28;20462;-58
2022/05/11 04:59:09;;;;;;;7.10;4.50;;;14.00;95.00;;;14.32;63.57;95351.56;5044498;28;20977;-56
2022/05/11 05:01:37;;;;;;;11.07;5.00;;;14.10;94.80;;;14.37;63.35;95348.44;5054833;28;20472;-56
2022/05/11 05:04:06;;;;;;;11.43;4.20;;;14.10;94.80;;;14.43;63.43;95353.13;5057128;28;20648;-57
2022/05/11 05:06:33;;;;;;;7.37;5.13;;;14.20;94.90;;;14.48;63.49;95356.16;5057709;28;20477;-57
2022/05/11 05:09:01;;;;;;;13.13;4.63;;;14.20;95.00;;;14.52;63.65;95357.53;5066749;28;20522;-56
2022/05/11 05:11:28;;;;;;;7.87;4.50;;;14.30;94.90;;;14.55;63.61;95354.56;5059103;28;20499;-56
2022/05/11 05:13:56;;;;;;;12.87;4.40;;;14.30;94.80;;;14.60;62.78;95354.97;5063670;28;20868;-57
2022/05/11 05:16:23;;;;;;;11.07;4.63;;;14.30;94.20;;;14.65;62.82;95357.97;5056558;28;20507;-55
2022/05/11 05:18:50;;;;;;;13.67;3.93;;;14.40;94.10;;;14.74;62.71;95356.25;5062644;28;20485;-56
2022/05/11 05:21:19;;;;;;;4.73;3.87;;;14.40;94.20;;;14.83;62.75;95363.25;5055848;28;20982;-56
2022/05/11 05:23:46;;;;;;;11.90;4.73;;;14.50;94.40;;;15.01;62.76;95371.19;5060530;28;20506;-54
2022/05/11 05:26:14;;;;;;;9.57;4.50;;;14.60;94.50;;;15.18;62.29;95369.47;5058731;28;20462;-57
2022/05/11 05:31:29;;;;;;;9.77;4.90;;;15.00;93.90;;;15.52;61.22;95371.34;5055596;28;20477;-58
2022/05/11 05:33:59;;;;;;;27.50;4.93;;;15.20;93.40;;;15.71;60.79;95375.56;5054685;28;21347;-56
2022/05/11 05:36:28;;;;;;;5.00;4.60;;;15.30;92.90;;;15.90;60.60;95378.97;5054211;28;20521;-56
2022/05/11 05:38:56;;;;;;;8.47;4.70;;;15.50;92.90;;;16.07;60.23;95380.69;5055422;28;21038;-56
2022/05/11 05:41:24;;;;;;;10.33;4.67;;;15.70;92.60;;;16.27;59.93;95381.25;5066102;28;20936;-56
2022/05/11 05:43:51;;;;;;;10.50;4.00;;;15.90;92.50;;;16.45;59.22;95383.78;5059097;28;20482;-56
2022/05/11 05:46:19;;;;;;;9.43;4.70;;;16.00;91.80;;;16.64;59.08;95387.13;5059628;28;20538;-55
2022/05/11 05:48:46;;;;;;;5.37;4.47;;;16.20;91.60;;;16.81;58.40;95393.28;5058906;28;20511;-56
2022/05/11 05:51:16;;;;;;;6.63;4.30;;;16.40;91.10;;;16.97;57.42;95393.28;5062691;28;20581;-54
2022/05/11 05:53:45;;;;;;;5.97;3.57;;;16.50;90.50;;;17.14;56.76;95394.13;5057917;28;20514;-55
2022/05/11 05:56:13;;;;;;;7.03;4.27;;;16.70;89.00;;;17.29;56.51;95396.09;5059602;28;20471;-57
2022/05/11 05:58:41;;;;;;;5.03;4.30;;;16.80;89.00;;;17.45;56.92;95396.06;5050725;28;20447;-57
2022/05/11 06:01:08;;;;;;;6.30;5.00;;;17.00;89.40;;;17.59;55.75;95391.06;5055903;28;20474;-57
2022/05/11 06:03:36;;;;;;;5.90;4.13;;;17.10;88.10;;;17.67;55.59;95393.69;5057917;28;20451;-55
2022/05/11 06:06:04;;;;;;;3.97;3.77;;;17.20;87.00;;;17.78;55.09;95389.84;5056259;28;20472;-54
2022/05/11 06:08:31;;;;;;;7.27;3.90;;;17.30;86.70;;;17.95;54.84;95395.97;5056738;28;20479;-57
2022/05/11 06:11:00;;;;;;;7.83;4.57;;;17.50;86.40;;;18.13;54.94;95401.06;5064094;28;20984;-56
2022/05/11 06:13:27;;;;;;;9.70;4.10;;;17.70;86.30;;;18.34;55.10;95397.78;5064159;28;20452;-56
2022/05/11 06:15:56;;;;;;;4.60;4.17;;;17.90;86.40;;;18.53;53.90;95404.47;5061823;28;21005;-55
2022/05/11 06:18:24;;;;;;;9.53;4.40;;;18.00;84.60;;;18.71;53.87;95402.34;5065146;28;20709;-56
2022/05/11 06:20:52;;;;;;;18.50;4.10;;;18.20;84.30;;;18.87;53.99;95404.13;5058044;28;20467;-56
2022/05/11 06:23:20;;;;;;;5.10;3.77;;;18.40;84.20;;;19.06;52.81;95404.66;5061674;28;20531;-54
2022/05/11 06:25:49;;;;;;;7.17;3.93;;;18.50;81.10;;;19.21;52.41;95408.19;5058658;28;20537;-58
2022/05/11 06:28:18;;;;;;;3.80;3.50;;;18.70;80.20;;;19.40;52.56;95411.34;5062430;28;20465;-57
2022/05/11 06:30:46;;;;;;;5.30;3.43;;;18.90;81.10;;;19.58;52.00;95414.50;5057480;28;20560;-55
2022/05/11 06:33:13;;;;;;;4.13;3.50;;;19.10;80.50;;;19.76;51.08;95416.00;5063332;28;20872;-56
2022/05/11 06:35:41;;;;;;;3.37;2.63;;;19.20;78.60;;;19.83;50.15;95406.25;5058006;28;20471;-57
2022/05/11 06:38:09;;;;;;;6.00;3.50;;;19.40;76.30;;;19.87;49.55;95410.22;5060339;28;20447;-56
2022/05/11 06:40:37;;;;;;;6.33;3.90;;;19.40;74.80;;;19.91;49.68;95408.84;5054868;28;20472;-56
2022/05/11 06:43:05;;;;;;;4.23;3.40;;;19.40;74.40;;;19.97;49.57;95409.94;5064684;28;20459;-57
2022/05/11 06:45:34;;;;;;;5.37;3.60;;;19.50;74.30;;;20.13;49.68;95419.63;5060727;28;20471;-54
2022/05/11 06:48:01;;;;;;;8.77;4.00;;;19.60;74.50;;;20.25;49.10;95412.78;5061240;28;20455;-55
2022/05/11 06:50:29;;;;;;;5.13;3.67;;;19.70;73.50;;;20.34;49.28;95414.34;5062523;28;20490;-55
2022/05/11 06:52:56;;;;;;;7.30;3.60;;;19.80;73.10;;;20.40;48.95;95405.56;5060452;28;20455;-56
2022/05/11 07:00:55;;;;;;;7.77;3.93;;;20.00;70.70;;;20.55;48.02;95402.03;5059770;28;20457;-57
2022/05/11 07:03:22;;;;;;;4.50;3.00;;;20.10;70.60;;;20.64;47.93;95402.75;5057770;28;20909;-56
2022/05/11 07:05:50;;;;;;;7.13;2.70;;;20.20;69.70;;;20.72;47.19;95399.97;5060720;28;20596;-56
2022/05/11 07:08:17;;;;;;;7.93;2.67;;;20.20;68.50;;;20.79;46.28;95400.88;5057373;28;20466;-56
2022/05/11 07:12:17;;;;;;;7.17;2.80;;;20.30;66.70;;;20.86;45.63;95400.94;5057768;28;20743;-55
2022/05/11 07:13:32;;;;;;;7.40;2.53;;;20.40;64.80;;;20.95;45.51;95402.47;5062048;28;20446;-56
2022/05/11 07:16:01;;;;;;;3.00;2.43;;;20.50;64.40;;;21.05;44.67;95397.63;5060159;28;20472;-57
2022/05/11 07:18:28;;;;;;;4.97;3.73;;;20.60;62.20;;;21.22;44.76;95395.47;5063129;28;20484;-56
2022/05/11 07:20:55;;;;;;;6.47;3.23;;;20.70;62.90;;;21.40;44.78;95396.88;5060356;28;20476;-56
2022/05/11 07:23:24;;;;;;;5.17;2.87;;;20.90;62.60;;;21.57;44.00;95394.78;5063561;28;20443;-57
2022/05/11 07:25:51;;;;;;;3.80;2.30;;;21.00;61.00;;;21.67;43.46;95387.19;5056987;28;20498;-57
2022/05/11 07:28:19;;;;;;;6.83;2.70;;;21.20;59.60;;;21.80;43.15;95389.97;5060493;28;20477;-57
2022/05/11 07:30:47;;;;;;;2.70;2.10;;;21.30;59.30;;;21.95;41.91;95389.00;5061213;28;20863;-56
2022/05/11 07:33:16;;;;;;;5.20;3.00;;;21.40;56.80;;;22.15;42.15;95384.59;5060082;28;20446;-57
2022/05/11 07:35:44;;;;;;;3.30;2.50;;;21.60;57.20;;;22.41;41.75;95388.41;5056272;28;20460;-58
2022/05/11 07:38:12;;;;;;;2.67;2.47;;;21.80;56.10;;;22.63;41.91;95385.59;5061202;28;20550;-57
2022/05/11 07:40:40;;;;;;;2.57;2.37;;;22.00;57.30;;;22.84;42.09;95387.31;5056807;28;20477;-56
2022/05/11 07:43:07;;;;;;;16.13;3.00;;;22.30;57.30;;;23.07;41.90;95373.50;5057571;28;20538;-58
2022/05/11 07:45:35;;;;;;;7.00;2.30;;;22.50;56.90;;;23.27;41.20;95371.69;5055125;28;20919;-58
2022/05/11 07:48:02;;;;;;;11.33;3.70;;;22.70;56.80;;;23.47;41.05;95376.22;5063038;28;20458;-59
2022/05/11 07:50:32;;;;;;;6.13;3.37;;;22.90;56.60;;;23.62;41.24;95379.53;5062193;28;20491;-57
2022/05/11 07:52:59;;;;;;;5.73;4.63;;;23.00;55.90;;;23.76;39.87;95376.78;5061921;28;20455;-57
2022/05/11 07:55:27;;;;;;;6.83;3.50;;;23.20;55.00;;;23.92;40.97;95373.69;5062037;28;20844;-57
2022/05/11 08:00:39;;;;;;;4.20;2.80;;;23.50;55.00;;;24.13;39.97;95369.06;5025325;28;21001;-56
2022/05/11 08:03:08;;;;;;;5.03;3.00;;;23.60;54.50;;;24.33;40.50;95364.44;5060535;28;20509;-54
2022/05/11 08:05:37;;;;;;;4.47;3.00;;;23.80;54.40;;;24.59;40.32;95364.56;5057178;28;20466;-56
2022/05/11 08:08:07;;;;;;;3.53;3.00;;;24.00;54.30;;;24.82;39.45;95355.94;5053662;28;20467;-56
2022/05/11 08:10:36;;;;;;;9.23;3.57;;;24.20;53.80;;;25.05;39.58;95353.50;5062227;28;20498;-57
2022/05/11 08:13:05;;;;;;;8.03;4.77;;;24.50;53.90;;;25.17;38.91;95358.16;5059780;28;20455;-57
2022/05/11 08:15:33;;;;;;;4.93;3.90;;;24.60;53.00;;;25.33;38.84;95354.13;5058450;28;20478;-56
2022/05/11 08:18:01;;;;;;;8.40;3.10;;;24.80;53.10;;;25.55;38.38;95351.88;5058752;28;20459;-59
2022/05/11 08:20:30;;;;;;;11.03;3.57;;;24.90;52.50;;;25.74;38.28;95352.72;5061851;28;20475;-57
2022/05/11 08:23:00;;;;;;;6.53;2.83;;;25.10;52.10;;;25.81;37.54;95342.69;5058168;28;20451;-56
2022/05/11 08:25:29;;;;;;;4.70;3.00;;;25.30;50.90;;;25.84;37.54;95352.19;5058579;28;20479;-56
2022/05/11 08:27:56;;;;;;;3.40;2.63;;;25.30;51.00;;;25.84;37.47;95354.88;5063384;28;20466;-57
2022/05/11 08:33:23;;;;;;;8.00;2.70;;;25.30;50.40;;;25.99;37.39;95339.19;5058295;28;20425;-57
2022/05/11 08:35:52;;;;;;;4.10;3.50;;;25.40;50.00;;;26.13;37.09;95342.56;5055997;28;20500;-57
2022/05/11 08:38:21;;;;;;;5.70;3.90;;;25.60;50.10;;;26.25;37.68;95348.03;5058819;28;20459;-57
2022/05/11 08:40:52;;;;;;;2.90;2.70;;;25.70;50.40;;;26.33;37.17;95334.22;5056205;28;20869;-58
2022/05/11 08:43:19;;;;;;;3.13;2.83;;;25.70;49.70;;;26.29;36.77;95336.56;5058691;28;20454;-56
2022/05/11 08:46:11;;;;;;;5.63;3.00;;;25.80;49.50;;;26.32;37.21;95335.28;5058532;28;20482;-56
2022/05/11 08:48:45;;;;;;;4.80;4.03;;;25.80;49.60;;;26.48;37.18;95339.22;5053238;28;20447;-57
2022/05/11 08:51:20;;;;;;;3.83;3.50;;;25.90;49.80;;;26.68;37.09;95339.00;5060936;28;20532;-57
2022/05/11 08:53:49;;;;;;;4.60;4.20;;;26.10;49.90;;;26.92;37.17;95341.75;5055153;28;20443;-57
2022/05/11 08:56:18;;;;;;;5.33;4.67;;;26.30;49.20;;;27.10;36.43;95336.28;5059953;28;20491;-57
2022/05/11 08:58:49;;;;;;;5.63;3.40;;;26.50;48.60;;;27.14;36.01;95339.31;5051197;28;20457;-56
2022/05/11 09:01:30;;;;;;;6.17;2.73;;;26.60;48.00;;;27.19;34.75;95336.78;5058650;28;20486;-57
2022/05/11 09:03:59;;;;;;;6.63;3.07;;;26.60;47.70;;;27.13;34.79;95337.69;5060148;28;20438;-60
2022/05/11 09:06:30;;;;;;;7.43;4.23;;;26.60;45.70;;;27.12;35.15;95339.56;5056868;28;20485;-56
2022/05/11 09:09:01;;;;;;;3.87;2.70;;;26.50;46.20;;;27.25;34.61;95340.41;5057021;28;20450;-58
2022/05/11 09:11:30;;;;;;;4.43;2.87;;;26.70;46.20;;;27.40;34.52;95337.28;5060789;28;21015;-56
2022/05/11 09:13:58;;;;;;;3.00;2.70;;;26.80;45.70;;;27.59;34.19;95336.13;5061525;28;20961;-58
2022/05/11 09:16:27;;;;;;;5.37;2.97;;;27.00;45.60;;;27.76;34.32;95340.78;5061094;28;20474;-57
2022/05/11 09:18:56;;;;;;;3.90;2.60;;;27.10;45.50;;;27.89;34.31;95335.16;5060923;28;20446;-57
2022/05/11 09:21:32;;;;;;;3.23;2.50;;;27.30;45.00;;;27.99;33.59;95340.78;5063079;28;20482;-59
2022/05/11 09:24:09;;;;;;;3.60;2.47;;;27.40;44.50;;;28.04;32.95;95334.66;5063068;28;20450;-57
2022/05/11 09:26:38;;;;;;;5.83;3.27;;;27.50;44.20;;;28.17;33.29;95330.91;5057295;28;20567;-58
2022/05/11 09:29:18;;;;;;;3.50;2.30;;;27.60;43.60;;;28.28;32.45;95324.63;5060650;28;20908;-59
2022/05/11 09:31:46;;;;;;;3.60;2.50;;;27.70;43.50;;;28.33;32.61;95332.00;5062899;28;20486;-56
2022/05/11 09:34:15;;;;;;;2.50;2.30;;;27.80;42.80;;;28.36;32.03;95328.84;5056888;28;20447;-56
2022/05/11 09:36:44;;;;;;;4.00;2.60;;;27.80;42.50;;;28.39;32.13;95318.34;5063484;28;20470;-57
2022/05/11 09:39:15;;;;;;;8.73;3.03;;;27.80;42.40;;;28.42;32.39;95322.47;5064365;28;20477;-56
2022/05/11 09:41:43;;;;;;;13.43;2.93;;;27.90;42.70;;;28.46;32.64;95323.63;5059290;28;20478;-58
2022/05/11 09:44:21;;;;;;;3.30;3.00;;;27.90;42.60;;;28.47;32.03;95319.84;5061811;28;20502;-57
2022/05/11 09:46:49;;;;;;;5.10;2.57;;;27.90;42.40;;;28.41;32.86;95320.81;5054697;28;20481;-56
2022/05/11 09:49:27;;;;;;;5.43;2.33;;;27.90;42.40;;;28.32;32.27;95322.25;5060647;28;21028;-59
2022/05/11 09:51:56;;;;;;;3.00;2.67;;;27.80;41.60;;;28.16;31.11;95316.53;5054069;28;20581;-54
2022/05/11 09:54:30;;;;;;;5.73;2.60;;;27.70;40.60;;;28.01;32.08;95313.50;5066649;28;21018;-56
2022/05/11 09:57:00;;;;;;;8.93;2.70;;;27.50;41.80;;;27.95;32.00;95307.19;5064593;28;20564;-57
2022/05/11 09:59:31;;;;;;;2.70;2.13;;;27.50;41.90;;;27.96;32.52;95303.41;5049518;28;20775;-58
2022/05/11 10:02:23;;;;;;;2.90;2.47;;;27.40;42.40;;;27.97;32.00;95298.84;5062296;28;20506;-57
2022/05/11 10:04:56;;;;;;;6.23;2.50;;;27.40;42.00;;;28.00;32.55;95303.78;5057435;28;21020;-57
2022/05/11 10:07:23;;;;;;;2.60;1.93;;;27.50;42.40;;;27.93;31.52;95294.94;5062404;28;20528;-57
2022/05/11 10:09:58;;;;;;;3.83;2.20;;;27.40;40.80;;;27.73;30.94;95298.84;5061613;28;20453;-59
2022/05/11 10:12:28;;;;;;;4.30;2.47;;;27.30;40.60;;;27.51;31.83;95294.06;5059741;28;21102;-56
2022/05/11 10:23:18;;;;;;;3.00;2.20;;;26.80;41.10;;;27.43;31.57;95286.28;5062416;28;20457;-56
2022/05/11 10:25:49;;;;;;;3.67;2.10;;;26.90;41.20;;;27.50;31.67;95287.00;5053240;28;20872;-57
2022/05/11 10:28:26;;;;;;;4.97;3.10;;;27.00;41.30;;;27.58;31.60;95287.72;5063849;28;20454;-55
2022/05/11 10:31:05;;;;;;;3.13;2.30;;;27.00;41.70;;;27.66;31.82;95285.44;5061241;28;20490;-57
2022/05/11 10:33:53;;;;;;;6.00;2.20;;;27.10;41.60;;;27.82;31.73;95286.59;5058699;28;20842;-56
2022/05/11 10:36:26;;;;;;;4.70;2.67;;;27.30;41.90;;;27.97;31.27;95283.44;5059986;28;20904;-56
2022/05/11 10:39:07;;;;;;;2.70;2.30;;;27.40;41.30;;;28.01;31.00;95281.06;5061691;28;20544;-57
2022/05/11 10:41:41;;;;;;;6.33;2.10;;;27.40;41.00;;;27.88;30.54;95279.41;5056678;28;20470;-57
2022/05/11 10:44:19;;;;;;;6.30;2.10;;;27.40;40.10;;;27.81;31.04;95278.72;5062702;28;20470;-57
2022/05/11 10:46:52;;;;;;;2.27;2.07;;;27.30;40.50;;;27.76;31.10;95282.13;5055455;28;20479;-57
2022/05/11 10:49:49;;;;;;;5.37;2.80;;;27.20;40.80;;;27.67;30.77;95284.41;5056249;28;20465;-57
2022/05/11 10:52:29;;;;;;;2.40;2.20;;;27.20;40.80;;;27.54;31.37;95285.47;5055845;28;20521;-57
2022/05/11 10:55:18;;;;;;;4.73;2.73;;;27.10;40.80;;;27.31;32.97;95286.31;5058753;28;20459;-57
2022/05/11 10:57:54;;;;;;;2.53;2.33;;;26.90;42.50;;;26.90;33.27;95292.56;5058729;28;20440;-57